Time;durP1;ratioP1;P1;durP2;ratioP2;P2;SDS_P1;SDS_P2;PMS_P1;PMS_P2;Temp;Humidity;BMP_temperature;BMP_pressure;BME280_temperature;BME280_humidity;BME280_pressure;Samples;Min_cycle;Max_cycle;Signal;HPM_P1;HPM_P2
2022/04/16 00:01:08;;;;;;;6.53;5.68;;;9.20;99.90;;;;;;5040529;28;20041;-80
2022/04/16 00:03:34;;;;;;;10.02;6.28;;;9.20;99.90;;;;;;5041283;28;20098;-79
2022/04/16 00:05:59;;;;;;;4.75;4.35;;;9.20;99.90;;;;;;5041127;28;20495;-79
2022/04/16 00:08:27;;;;;;;8.13;5.32;;;9.20;99.90;;;;;;5041966;28;20033;-79
2022/04/16 00:10:53;;;;;;;7.00;4.50;;;9.20;99.90;;;;;;5044736;28;20048;-79
2022/04/16 00:13:19;;;;;;;6.72;4.95;;;9.20;99.90;;;;;;5044291;28;20048;-80
2022/04/16 00:15:46;;;;;;;4.93;4.53;;;9.20;99.90;;;;;;5044896;28;20123;-80
2022/04/16 00:18:12;;;;;;;7.30;6.10;;;9.20;99.90;;;;;;5044422;28;20044;-80
2022/04/16 00:20:40;;;;;;;8.65;4.68;;;9.20;99.90;;;;;;5044571;28;20538;-79
2022/04/16 00:23:06;;;;;;;6.07;5.35;;;9.20;99.90;;;;;;5039839;28;20053;-80
2022/04/16 00:25:34;;;;;;;6.60;5.85;;;9.20;99.90;;;;;;5043790;28;20052;-79
2022/04/16 00:28:03;;;;;;;6.65;4.32;;;9.20;99.90;;;;;;5044500;28;20545;-80
2022/04/16 00:30:35;;;;;;;6.20;4.72;;;9.20;99.90;;;;;;5027032;28;20041;-80
2022/04/16 00:33:02;;;;;;;13.87;5.63;;;9.20;99.90;;;;;;5040895;28;20083;-76
2022/04/16 00:35:29;;;;;;;6.53;4.88;;;9.20;99.90;;;;;;5042508;28;20306;-80
2022/04/16 00:37:55;;;;;;;9.65;7.18;;;9.20;99.90;;;;;;5038985;28;20045;-80
2022/04/16 00:40:20;;;;;;;8.23;5.05;;;9.20;99.90;;;;;;5042898;28;20282;-79
2022/04/16 00:42:46;;;;;;;5.60;4.32;;;9.20;99.90;;;;;;5043887;28;20084;-80
2022/04/16 00:45:12;;;;;;;5.65;4.85;;;9.20;99.90;;;;;;5040091;28;20060;-79
2022/04/16 00:47:39;;;;;;;7.00;4.35;;;9.20;99.90;;;;;;5023761;28;20045;-80
2022/04/16 00:50:06;;;;;;;8.35;5.03;;;9.20;99.90;;;;;;5024157;28;20041;-80
2022/04/16 00:52:31;;;;;;;4.63;4.22;;;9.20;99.90;;;;;;5038720;28;20049;-80
2022/04/16 00:54:58;;;;;;;12.23;6.25;;;9.20;99.90;;;;;;5024288;28;20050;-80
2022/04/16 00:57:24;;;;;;;5.85;5.28;;;9.20;99.90;;;;;;5023514;28;20073;-79
2022/04/16 00:59:49;;;;;;;6.95;4.72;;;9.20;99.90;;;;;;5034692;28;20652;-80
2022/04/16 01:02:15;;;;;;;5.60;4.45;;;9.20;99.90;;;;;;5043795;28;20456;-79
2022/04/16 01:04:40;;;;;;;6.75;4.35;;;9.20;99.90;;;;;;5020221;23;20765;-80
2022/04/16 01:07:07;;;;;;;9.38;5.97;;;9.20;99.90;;;;;;5009550;28;20048;-80
2022/04/16 01:09:33;;;;;;;5.22;4.75;;;9.20;99.90;;;;;;5023699;28;20150;-81
2022/04/16 01:11:59;;;;;;;8.13;5.03;;;9.20;99.90;;;;;;5024310;28;20484;-80
2022/04/16 01:14:25;;;;;;;6.95;6.25;;;9.20;99.90;;;;;;5023590;28;20120;-80
2022/04/16 01:16:55;;;;;;;5.15;4.75;;;9.20;99.90;;;;;;5022402;28;20128;-80
2022/04/16 01:19:22;;;;;;;6.63;5.05;;;9.20;99.90;;;;;;5021253;28;20111;-79
2022/04/16 01:21:48;;;;;;;5.00;4.53;;;9.20;99.90;;;;;;5021173;28;20053;-80
2022/04/16 01:24:14;;;;;;;8.60;5.13;;;9.20;99.90;;;;;;5023187;28;20137;-80
2022/04/16 01:26:41;;;;;;;6.40;5.65;;;9.20;99.90;;;;;;5023482;28;20045;-80
2022/04/16 01:29:08;;;;;;;6.13;4.30;;;9.20;99.90;;;;;;5022000;28;20103;-80
2022/04/16 01:31:34;;;;;;;6.70;4.85;;;9.20;99.90;;;;;;5038790;28;20037;-80
2022/04/16 01:34:00;;;;;;;5.72;4.13;;;9.20;99.90;;;;;;5023829;28;20087;-80
2022/04/16 01:36:29;;;;;;;3.92;3.38;;;9.20;99.90;;;;;;5022396;28;20538;-80
2022/04/16 01:38:58;;;;;;;13.45;5.38;;;9.30;99.90;;;;;;5002701;28;20041;-80
2022/04/16 01:41:25;;;;;;;5.60;4.95;;;9.20;99.90;;;;;;5002789;28;20048;-80
2022/04/16 01:43:51;;;;;;;6.07;4.57;;;9.20;99.90;;;;;;5012768;28;20290;-80
2022/04/16 01:46:17;;;;;;;5.63;5.07;;;9.20;99.90;;;;;;5015331;28;20128;-80
2022/04/16 01:48:43;;;;;;;4.60;4.20;;;9.20;99.90;;;;;;5023199;28;20381;-80
2022/04/16 01:51:09;;;;;;;6.43;4.78;;;9.20;99.90;;;;;;5022747;28;20095;-80
2022/04/16 01:53:35;;;;;;;5.07;4.65;;;9.20;99.90;;;;;;5021593;28;20037;-80
2022/04/16 01:56:00;;;;;;;5.25;4.85;;;9.20;99.90;;;;;;5038855;28;20049;-79
2022/04/16 01:58:26;;;;;;;7.80;6.55;;;9.20;99.90;;;;;;5022563;28;20046;-80
2022/04/16 02:00:52;;;;;;;6.63;6.00;;;9.20;99.90;;;;;;5022609;28;20042;-80
2022/04/16 02:03:19;;;;;;;10.60;6.95;;;9.20;99.90;;;;;;5020886;28;20052;-79
2022/04/16 02:05:45;;;;;;;17.17;6.95;;;9.20;99.90;;;;;;5022489;28;20060;-80
2022/04/16 02:08:10;;;;;;;9.88;6.85;;;9.20;99.90;;;;;;5003642;28;20041;-80
2022/04/16 02:10:36;;;;;;;8.20;6.82;;;9.20;99.90;;;;;;5021214;28;20096;-80
2022/04/16 02:13:02;;;;;;;7.47;6.00;;;9.20;99.90;;;;;;5022835;28;20041;-80
2022/04/16 02:15:28;;;;;;;11.50;6.47;;;9.20;99.90;;;;;;5022505;28;20601;-80
2022/04/16 02:17:56;;;;;;;6.70;5.60;;;9.20;99.90;;;;;;4994713;28;20041;-80
2022/04/16 02:20:23;;;;;;;6.00;5.45;;;9.10;99.90;;;;;;5002286;28;20053;-80
2022/04/16 02:22:49;;;;;;;15.75;7.30;;;9.20;99.90;;;;;;5001975;28;20055;-80
2022/04/16 02:25:17;;;;;;;7.93;7.07;;;9.20;99.90;;;;;;4984756;28;20503;-80
2022/04/16 02:27:43;;;;;;;6.75;5.97;;;9.20;99.90;;;;;;5002757;28;20064;-80
2022/04/16 02:30:12;;;;;;;8.52;7.45;;;9.10;99.90;;;;;;5002299;28;20129;-79
2022/04/16 02:32:43;;;;;;;8.38;6.07;;;9.10;99.90;;;;;;5002863;28;20048;-80
2022/04/16 02:35:10;;;;;;;7.00;6.30;;;9.20;99.90;;;;;;5001981;28;20100;-80
2022/04/16 02:37:36;;;;;;;7.50;4.80;;;9.20;99.90;;;;;;4984331;28;20069;-80
2022/04/16 02:40:03;;;;;;;7.05;5.57;;;9.20;99.90;;;;;;5001851;28;20077;-80
2022/04/16 02:42:29;;;;;;;6.65;6.05;;;9.10;99.90;;;;;;5003105;28;20042;-80
2022/04/16 02:47:39;;;;;;;9.10;7.55;;;9.20;99.90;;;;;;5025766;28;20151;-81
2022/04/16 02:50:05;;;;;;;7.85;6.55;;;9.10;99.90;;;;;;5024001;28;20123;-79
2022/04/16 02:52:36;;;;;;;8.30;7.53;;;9.20;99.90;;;;;;5040845;28;20121;-80
2022/04/16 02:55:03;;;;;;;8.93;8.02;;;9.20;99.90;;;;;;5041232;28;20045;-80
2022/04/16 02:57:31;;;;;;;14.23;8.32;;;9.20;99.90;;;;;;5042174;28;20040;-80
2022/04/16 02:59:57;;;;;;;8.80;6.15;;;9.10;99.90;;;;;;5040809;28;20446;-80
2022/04/16 03:02:23;;;;;;;7.80;7.00;;;9.20;99.90;;;;;;5042100;28;20033;-79
2022/04/16 03:04:51;;;;;;;8.25;6.90;;;9.20;99.90;;;;;;5039990;28;20064;-79
2022/04/16 03:07:17;;;;;;;9.38;5.97;;;9.20;99.90;;;;;;5040796;28;20667;-80
2022/04/16 03:09:43;;;;;;;7.78;6.68;;;9.10;99.90;;;;;;5041783;28;20040;-79
2022/04/16 03:12:09;;;;;;;9.73;6.35;;;9.10;99.90;;;;;;5023471;28;20045;-80
2022/04/16 03:17:35;;;;;;;8.23;7.40;;;9.10;99.90;;;;;;5023055;28;20204;-80
2022/04/16 03:20:09;;;;;;;8.80;7.85;;;9.10;99.90;;;;;;5040310;28;20056;-80
2022/04/16 03:22:36;;;;;;;6.85;6.18;;;9.10;99.90;;;;;;5039662;28;20068;-80
2022/04/16 03:25:09;;;;;;;9.05;8.20;;;9.10;99.90;;;;;;5026414;28;20041;-79
2022/04/16 03:27:34;;;;;;;8.60;7.38;;;9.10;99.90;;;;;;5021822;28;20135;-80
2022/04/16 03:30:01;;;;;;;7.32;6.53;;;9.10;99.90;;;;;;5037176;28;20099;-80
2022/04/16 03:32:26;;;;;;;8.38;7.50;;;9.10;99.90;;;;;;5037242;28;20056;-80
2022/04/16 03:34:52;;;;;;;7.68;6.25;;;9.10;99.90;;;;;;5036896;28;20050;-79
2022/04/16 03:37:17;;;;;;;21.92;8.57;;;9.10;99.90;;;;;;5007158;28;20044;-80
2022/04/16 03:39:44;;;;;;;9.10;8.23;;;9.10;99.90;;;;;;5024024;28;20095;-80
2022/04/16 03:42:10;;;;;;;9.90;7.57;;;9.10;99.90;;;;;;5040746;28;20521;-80
2022/04/16 03:44:37;;;;;;;8.88;7.03;;;9.00;99.90;;;;;;5045571;28;20110;-80
2022/04/16 03:47:03;;;;;;;14.88;7.88;;;9.00;99.90;;;;;;5039393;28;20033;-80
2022/04/16 03:49:28;;;;;;;10.25;7.78;;;9.00;99.90;;;;;;5026002;28;20045;-80
2022/04/16 03:51:54;;;;;;;9.65;8.27;;;9.00;99.90;;;;;;5024590;28;20511;-80
2022/04/16 04:00:00;;;;;;;12.57;9.73;;;8.90;99.90;;;;;;5025242;28;20041;-80
2022/04/16 04:02:31;;;;;;;8.82;7.95;;;8.90;99.90;;;;;;5023965;28;20079;-80
2022/04/16 04:04:57;;;;;;;11.15;8.30;;;8.90;99.90;;;;;;5007437;28;20064;-80
2022/04/16 04:07:23;;;;;;;14.68;7.50;;;8.90;99.90;;;;;;5027428;28;20044;-80
2022/04/16 04:09:49;;;;;;;8.40;7.53;;;8.80;99.90;;;;;;5044692;28;20037;-79
2022/04/16 04:12:15;;;;;;;9.93;8.32;;;8.80;99.90;;;;;;5044528;28;20048;-80
2022/04/16 04:14:45;;;;;;;10.25;8.57;;;8.80;99.90;;;;;;5045040;28;20049;-80
2022/04/16 04:17:12;;;;;;;11.80;7.78;;;8.80;99.90;;;;;;5041548;28;20037;-80
2022/04/16 04:19:40;;;;;;;8.80;7.57;;;8.80;99.90;;;;;;5024847;28;20164;-79
2022/04/16 04:22:09;;;;;;;8.40;7.38;;;8.70;99.90;;;;;;5006093;28;20098;-80
2022/04/16 04:24:36;;;;;;;7.80;7.03;;;8.70;99.90;;;;;;5024633;28;20092;-80
2022/04/16 04:27:02;;;;;;;11.20;7.40;;;8.60;99.90;;;;;;5024446;28;20045;-80
2022/04/16 04:29:28;;;;;;;11.52;7.72;;;8.60;99.90;;;;;;5025010;28;20053;-80
2022/04/16 04:31:54;;;;;;;7.20;6.47;;;8.50;99.90;;;;;;5024403;28;20124;-79
2022/04/16 04:34:20;;;;;;;12.27;7.30;;;8.50;99.90;;;;;;5023224;28;20895;-80
2022/04/16 04:36:45;;;;;;;7.18;6.47;;;8.50;99.90;;;;;;5023575;28;20052;-80
2022/04/16 04:39:12;;;;;;;20.27;8.40;;;8.40;99.90;;;;;;5025446;28;20053;-80
2022/04/16 04:41:38;;;;;;;9.63;8.65;;;8.40;99.90;;;;;;5024048;28;20048;-79
2022/04/16 04:44:04;;;;;;;8.88;7.63;;;8.40;99.90;;;;;;5022748;28;20037;-80
2022/04/16 04:46:30;;;;;;;10.90;7.53;;;8.40;99.90;;;;;;5037766;28;20056;-79
2022/04/16 04:48:56;;;;;;;12.77;7.90;;;8.30;99.90;;;;;;5024398;28;20694;-80
2022/04/16 04:51:22;;;;;;;12.05;9.15;;;8.30;99.90;;;;;;5022269;28;20111;-80
2022/04/16 04:53:47;;;;;;;13.90;8.93;;;8.30;99.90;;;;;;5038500;28;20112;-80
2022/04/16 04:56:13;;;;;;;7.93;7.22;;;8.30;99.90;;;;;;5023206;28;20557;-80
2022/04/16 04:58:38;;;;;;;12.35;8.73;;;8.20;99.90;;;;;;5039463;28;20561;-80
2022/04/16 05:01:04;;;;;;;17.35;10.73;;;8.20;99.90;;;;;;5005446;28;20037;-81
2022/04/16 05:03:29;;;;;;;15.63;7.93;;;8.30;99.90;;;;;;5039974;28;20111;-80
2022/04/16 05:05:55;;;;;;;12.00;9.52;;;8.20;99.90;;;;;;5022892;28;20107;-80
2022/04/16 05:08:20;;;;;;;13.40;9.32;;;8.30;99.90;;;;;;5022935;28;20118;-80
2022/04/16 05:10:46;;;;;;;10.40;9.23;;;8.30;99.90;;;;;;5023840;28;20056;-80
2022/04/16 05:13:11;;;;;;;8.65;7.75;;;8.30;99.90;;;;;;5023196;28;20071;-80
2022/04/16 05:15:37;;;;;;;11.30;9.52;;;8.30;99.90;;;;;;5038830;28;20045;-80
2022/04/16 05:18:02;;;;;;;11.73;8.48;;;8.30;99.90;;;;;;5023048;28;20072;-80
2022/04/16 05:20:28;;;;;;;12.48;9.23;;;8.30;99.90;;;;;;5024086;28;20691;-80
2022/04/16 05:22:53;;;;;;;20.17;10.07;;;8.30;99.90;;;;;;5037764;28;20048;-80
2022/04/16 05:25:19;;;;;;;9.10;8.38;;;8.30;99.90;;;;;;5023174;28;20041;-80
2022/04/16 05:27:46;;;;;;;10.07;7.90;;;8.30;99.90;;;;;;5023542;28;20426;-80
2022/04/16 05:30:13;;;;;;;11.07;9.02;;;8.30;99.90;;;;;;5022818;28;20041;-80
2022/04/16 05:32:40;;;;;;;12.50;9.43;;;8.30;99.90;;;;;;5022090;28;20049;-80
2022/04/16 05:35:07;;;;;;;8.43;7.60;;;8.30;99.90;;;;;;5023088;28;20412;-80
2022/04/16 05:37:34;;;;;;;10.77;8.02;;;8.30;99.90;;;;;;5021308;28;20071;-80
2022/04/16 05:40:00;;;;;;;9.75;8.77;;;8.40;99.90;;;;;;5023543;28;20707;-80
2022/04/16 05:42:26;;;;;;;10.40;9.32;;;8.40;99.90;;;;;;5038640;28;20049;-80
2022/04/16 05:44:51;;;;;;;10.50;9.55;;;8.40;99.90;;;;;;5004312;28;20049;-80
2022/04/16 05:47:17;;;;;;;13.68;8.93;;;8.40;99.90;;;;;;5013986;28;20060;-80
2022/04/16 05:49:42;;;;;;;11.48;9.15;;;8.40;99.90;;;;;;5023079;28;20042;-80
2022/04/16 05:52:09;;;;;;;15.52;11.10;;;8.40;99.90;;;;;;5020835;28;20404;-80
2022/04/16 05:54:36;;;;;;;10.15;7.90;;;8.50;99.90;;;;;;5022717;28;20041;-81
2022/04/16 05:57:02;;;;;;;10.80;9.65;;;8.50;99.90;;;;;;5022219;28;20805;-79
2022/04/16 05:59:28;;;;;;;13.18;10.18;;;8.50;99.90;;;;;;5022695;28;20045;-80
2022/04/16 06:01:54;;;;;;;10.75;9.57;;;8.50;99.90;;;;;;5002604;28;20046;-80
2022/04/16 06:04:19;;;;;;;10.07;9.07;;;8.60;99.90;;;;;;4994097;28;20625;-81
2022/04/16 06:06:46;;;;;;;14.18;11.05;;;8.50;99.90;;;;;;5034739;28;20045;-81
2022/04/16 06:09:12;;;;;;;17.25;11.82;;;8.60;99.90;;;;;;5022150;28;20052;-81
2022/04/16 06:11:37;;;;;;;17.00;11.23;;;8.60;99.90;;;;;;5022570;28;20033;-81
2022/04/16 06:14:03;;;;;;;15.95;11.05;;;8.60;99.90;;;;;;5004648;28;20045;-81
2022/04/16 06:16:30;;;;;;;21.85;14.27;;;8.70;99.90;;;;;;5038153;28;20037;-80
2022/04/16 06:18:55;;;;;;;14.10;11.13;;;8.70;99.90;;;;;;5022592;28;20050;-81
2022/04/16 06:21:21;;;;;;;17.63;12.60;;;8.70;99.90;;;;;;5021727;28;20049;-81
2022/04/16 06:23:46;;;;;;;18.70;13.07;;;8.70;99.90;;;;;;5022204;28;20045;-81
2022/04/16 06:26:12;;;;;;;18.55;11.90;;;8.80;99.90;;;;;;5037582;28;20047;-81
2022/04/16 06:28:37;;;;;;;12.95;11.25;;;8.80;99.90;;;;;;5021976;28;20091;-81
2022/04/16 06:31:03;;;;;;;19.65;13.20;;;8.80;99.90;;;;;;5021801;28;20099;-81
2022/04/16 06:33:28;;;;;;;15.68;12.88;;;8.80;99.90;;;;;;5005211;28;20458;-81
2022/04/16 06:35:54;;;;;;;15.20;13.00;;;8.80;99.90;;;;;;5029488;28;20483;-81
2022/04/16 06:38:19;;;;;;;18.88;12.20;;;8.90;99.90;;;;;;5023898;28;20590;-81
2022/04/16 06:40:45;;;;;;;14.10;11.68;;;8.90;99.90;;;;;;5035530;28;20041;-81
2022/04/16 06:43:10;;;;;;;17.67;12.27;;;8.90;99.90;;;;;;5041049;28;20088;-80
2022/04/16 06:45:36;;;;;;;13.80;11.40;;;8.90;99.90;;;;;;5035047;28;20124;-81
2022/04/16 06:48:02;;;;;;;14.07;12.30;;;9.00;99.90;;;;;;5005270;28;20046;-81
2022/04/16 06:50:28;;;;;;;14.70;10.73;;;9.00;99.90;;;;;;5042109;28;20041;-81
2022/04/16 06:52:54;;;;;;;15.43;10.43;;;9.00;99.90;;;;;;5041281;28;20045;-81
2022/04/16 06:55:20;;;;;;;11.20;9.30;;;9.10;99.90;;;;;;5041371;28;20324;-81
2022/04/16 06:57:46;;;;;;;16.98;11.18;;;9.10;99.90;;;;;;5028540;28;20045;-81
2022/04/16 07:00:12;;;;;;;15.02;11.32;;;9.10;99.90;;;;;;5004531;28;20033;-80
2022/04/16 07:02:39;;;;;;;14.65;9.50;;;9.10;99.90;;;;;;5034955;28;20076;-81
2022/04/16 07:05:06;;;;;;;10.48;9.48;;;9.20;99.90;;;;;;5009184;28;20088;-81
2022/04/16 07:07:32;;;;;;;9.77;8.80;;;9.20;99.90;;;;;;5039579;28;20057;-81
2022/04/16 07:09:58;;;;;;;10.57;8.73;;;9.20;99.90;;;;;;5034508;28;20041;-81
2022/04/16 07:12:24;;;;;;;14.38;7.90;;;9.20;99.90;;;;;;5021215;28;20037;-80
2022/04/16 07:14:50;;;;;;;9.95;6.95;;;9.20;99.90;;;;;;5026050;28;20046;-80
2022/04/16 07:17:16;;;;;;;12.48;7.38;;;9.20;99.90;;;;;;5038893;28;20037;-81
2022/04/16 07:19:41;;;;;;;11.25;7.28;;;9.20;99.90;;;;;;5009242;28;20400;-80
2022/04/16 07:22:07;;;;;;;8.68;7.82;;;9.20;99.90;;;;;;5024176;28;20091;-81
2022/04/16 07:24:37;;;;;;;10.50;7.60;;;9.20;99.90;;;;;;5032339;28;20037;-79
2022/04/16 07:27:04;;;;;;;10.10;6.57;;;9.30;99.90;;;;;;5033860;28;20075;-80
2022/04/16 07:29:30;;;;;;;10.52;6.30;;;9.30;99.90;;;;;;5045865;28;20044;-80
2022/04/16 07:31:56;;;;;;;6.20;5.20;;;9.30;99.90;;;;;;5031914;28;20484;-80
2022/04/16 07:34:22;;;;;;;12.38;7.90;;;9.30;99.90;;;;;;5025255;28;20168;-80
2022/04/16 07:36:48;;;;;;;7.53;6.13;;;9.40;99.90;;;;;;5039920;28;20045;-80
2022/04/16 07:39:14;;;;;;;10.60;6.90;;;9.40;99.90;;;;;;5025488;28;20045;-81
2022/04/16 07:41:39;;;;;;;7.95;5.85;;;9.40;99.90;;;;;;5017580;28;20029;-80
2022/04/16 07:44:05;;;;;;;9.02;7.10;;;9.50;99.90;;;;;;5023191;28;20246;-79
2022/04/16 07:46:32;;;;;;;7.90;6.93;;;9.40;99.90;;;;;;5024154;28;20516;-79
2022/04/16 07:48:58;;;;;;;9.77;5.43;;;9.50;99.90;;;;;;5014528;28;20053;-79
2022/04/16 07:51:25;;;;;;;9.57;5.57;;;9.40;99.90;;;;;;5012940;28;20041;-80
2022/04/16 07:53:51;;;;;;;14.15;8.18;;;9.40;99.90;;;;;;5014800;28;20466;-80
2022/04/16 07:56:17;;;;;;;10.20;5.95;;;9.40;99.90;;;;;;5014450;28;20124;-80
2022/04/16 07:58:42;;;;;;;7.78;5.07;;;9.50;99.90;;;;;;5040381;28;20124;-80
2022/04/16 08:01:08;;;;;;;7.30;5.85;;;9.50;99.90;;;;;;5024668;28;20077;-80
2022/04/16 08:03:33;;;;;;;11.25;6.72;;;9.50;99.90;;;;;;5023623;28;20052;-79
2022/04/16 08:05:59;;;;;;;5.97;4.13;;;9.50;99.90;;;;;;5046603;28;20108;-81
2022/04/16 08:08:24;;;;;;;7.65;6.00;;;9.50;99.90;;;;;;5013929;28;20507;-81
2022/04/16 08:10:53;;;;;;;6.13;5.35;;;9.50;99.90;;;;;;5023671;28;20052;-81
2022/04/16 08:13:22;;;;;;;5.55;5.03;;;9.60;99.90;;;;;;5024652;28;20042;-80
2022/04/16 08:15:48;;;;;;;11.35;6.38;;;9.60;99.90;;;;;;5024449;28;20040;-81
2022/04/16 08:18:14;;;;;;;4.97;3.65;;;9.60;99.90;;;;;;5027116;28;20061;-80
2022/04/16 08:20:39;;;;;;;7.10;5.60;;;9.60;99.90;;;;;;5042499;28;20368;-80
2022/04/16 08:23:06;;;;;;;8.38;5.15;;;9.60;99.90;;;;;;5039955;28;20044;-80
2022/04/16 08:27:58;;;;;;;5.80;5.20;;;9.70;99.90;;;;;;5040307;28;20045;-79
2022/04/16 08:30:24;;;;;;;12.07;5.80;;;9.60;99.90;;;;;;5023585;28;20044;-82
2022/04/16 08:32:50;;;;;;;7.50;5.88;;;9.70;99.90;;;;;;5022728;28;20355;-88
2022/04/16 08:35:18;;;;;;;8.15;5.25;;;9.70;99.90;;;;;;5029922;28;20398;-87
2022/04/16 08:37:44;;;;;;;9.02;5.97;;;9.80;99.90;;;;;;5009633;28;20132;-80
2022/04/16 08:40:12;;;;;;;9.63;5.07;;;9.80;99.90;;;;;;5022887;28;20565;-81
2022/04/16 08:42:39;;;;;;;9.25;4.93;;;9.80;99.90;;;;;;5023132;28;20149;-80
2022/04/16 08:45:07;;;;;;;8.60;5.63;;;9.80;99.90;;;;;;5023404;28;20479;-80
2022/04/16 08:47:33;;;;;;;10.90;4.80;;;9.90;99.90;;;;;;5024149;28;20060;-82
2022/04/16 08:50:00;;;;;;;7.25;6.00;;;9.90;99.90;;;;;;5002446;28;20046;-89
2022/04/16 08:52:36;;;;;;;5.35;4.85;;;10.00;99.90;;;;;;5023189;28;20045;-93
2022/04/16 08:55:09;;;;;;;6.25;4.18;;;10.00;99.90;;;;;;5006223;28;20049;-90
2022/04/16 08:57:34;;;;;;;5.88;4.53;;;10.00;99.90;;;;;;5001594;28;20049;-90
2022/04/16 09:00:00;;;;;;;4.35;3.03;;;10.00;99.90;;;;;;5022697;28;20041;-91
2022/04/16 09:02:28;;;;;;;7.88;4.30;;;10.10;99.90;;;;;;5036145;28;20034;-88
2022/04/16 09:05:06;;;;;;;4.32;3.30;;;10.10;99.90;;;;;;5025821;28;20567;-90
2022/04/16 09:07:47;;;;;;;6.25;3.85;;;10.10;99.90;;;;;;5012794;28;20053;-88
2022/04/16 09:10:13;;;;;;;6.97;4.13;;;10.10;99.90;;;;;;5026078;28;20492;-86
2022/04/16 09:12:40;;;;;;;4.10;3.70;;;10.20;99.90;;;;;;5039385;28;20037;-89
2022/04/16 09:15:12;;;;;;;7.47;3.75;;;10.20;99.90;;;;;;5010558;28;20087;-88
2022/04/16 09:17:38;;;;;;;7.45;3.75;;;10.20;99.90;;;;;;5021466;28;20110;-87
2022/04/16 09:20:14;;;;;;;4.68;4.22;;;10.30;99.90;;;;;;5028083;28;20120;-86
2022/04/16 09:22:41;;;;;;;5.32;4.13;;;10.30;99.90;;;;;;5022499;28;20045;-92
2022/04/16 09:25:18;;;;;;;5.97;4.25;;;10.30;99.90;;;;;;5027265;28;20037;-90
2022/04/16 09:27:52;;;;;;;6.75;3.70;;;10.30;99.90;;;;;;5020382;28;20049;-94
2022/04/16 09:30:32;;;;;;;4.05;3.17;;;10.40;99.90;;;;;;5025240;28;20040;-84
2022/04/16 09:32:59;;;;;;;9.10;3.30;;;10.40;99.90;;;;;;5030860;28;20474;-84
2022/04/16 09:35:35;;;;;;;7.20;3.40;;;10.50;99.90;;;;;;5028900;28;20665;-83
2022/04/16 09:38:03;;;;;;;4.82;3.17;;;10.50;99.90;;;;;;5022429;28;20068;-84
2022/04/16 09:40:31;;;;;;;5.35;4.32;;;10.50;99.90;;;;;;5024564;28;20064;-82
2022/04/16 09:43:00;;;;;;;4.45;3.58;;;10.60;99.90;;;;;;5038552;28;20052;-83
2022/04/16 09:45:26;;;;;;;3.95;2.95;;;10.60;99.90;;;;;;5003841;28;20187;-83
2022/04/16 09:47:52;;;;;;;5.35;3.92;;;10.60;99.90;;;;;;5009104;28;20040;-82
2022/04/16 09:50:23;;;;;;;5.45;2.53;;;10.60;99.90;;;;;;5022724;28;20033;-83
2022/04/16 09:53:00;;;;;;;5.95;2.92;;;10.60;99.90;;;;;;5006712;28;20060;-80
2022/04/16 09:55:26;;;;;;;5.78;2.35;;;10.70;99.90;;;;;;5019980;28;20052;-79
2022/04/16 09:58:01;;;;;;;6.90;2.80;;;10.70;99.90;;;;;;5041850;28;20145;-79
2022/04/16 10:00:28;;;;;;;4.68;3.15;;;10.80;99.90;;;;;;5003694;28;20509;-79
2022/04/16 10:02:54;;;;;;;2.20;1.75;;;10.80;99.90;;;;;;5022108;28;20182;-79
2022/04/16 10:05:22;;;;;;;2.28;2.00;;;10.80;99.90;;;;;;5025682;28;20503;-79
2022/04/16 10:07:48;;;;;;;8.20;3.35;;;10.90;99.90;;;;;;5021318;28;20076;-79
2022/04/16 10:10:40;;;;;;;2.22;2.10;;;10.90;99.90;;;;;;5021836;28;20122;-79
2022/04/16 10:13:11;;;;;;;3.88;2.85;;;10.90;99.90;;;;;;4988770;28;20034;-79
2022/04/16 10:15:55;;;;;;;2.25;1.83;;;10.90;99.90;;;;;;5010384;28;20125;-79
2022/04/16 10:18:21;;;;;;;3.28;2.85;;;11.00;99.90;;;;;;5009502;28;20559;-79
2022/04/16 10:20:54;;;;;;;3.38;2.15;;;11.00;99.90;;;;;;4998837;28;20037;-78
2022/04/16 10:23:40;;;;;;;3.20;2.20;;;11.10;99.90;;;;;;4999864;28;20042;-79
2022/04/16 10:26:09;;;;;;;2.63;2.42;;;11.10;99.90;;;;;;5001552;28;20081;-78
2022/04/16 10:28:39;;;;;;;9.07;3.47;;;11.20;99.90;;;;;;4994274;28;20118;-79
2022/04/16 10:31:06;;;;;;;2.42;2.08;;;11.20;99.90;;;;;;5010490;28;20446;-79
2022/04/16 10:33:32;;;;;;;2.53;1.95;;;11.20;99.90;;;;;;4996863;28;20060;-80
2022/04/16 10:36:00;;;;;;;4.03;1.80;;;11.30;99.90;;;;;;4983718;28;20038;-79
2022/04/16 10:38:32;;;;;;;2.58;1.92;;;11.30;99.90;;;;;;4998648;28;20073;-82
2022/04/16 10:41:17;;;;;;;1.05;1.05;;;11.30;99.90;;;;;;5017362;28;20042;-83
2022/04/16 10:43:57;;;;;;;2.72;1.13;;;11.30;99.90;;;;;;5000081;28;20546;-82
2022/04/16 10:46:23;;;;;;;2.80;1.52;;;11.30;99.90;;;;;;5000148;28;20038;-82
2022/04/16 10:48:49;;;;;;;5.45;1.50;;;11.30;99.90;;;;;;4998646;28;20042;-82
2022/04/16 10:51:21;;;;;;;2.05;1.50;;;11.30;99.90;;;;;;4993247;28;20056;-82
2022/04/16 10:53:46;;;;;;;1.87;1.70;;;11.40;99.90;;;;;;4998962;28;20052;-81
2022/04/16 10:56:14;;;;;;;2.35;1.77;;;11.40;99.90;;;;;;5015646;28;20675;-85
2022/04/16 10:58:41;;;;;;;3.00;1.20;;;11.40;99.90;;;;;;4982650;28;20068;-83
2022/04/16 11:01:11;;;;;;;2.63;1.33;;;11.40;99.90;;;;;;5032011;28;20128;-83
2022/04/16 11:03:46;;;;;;;1.65;0.95;;;11.50;99.90;;;;;;4997945;28;20042;-88
2022/04/16 11:06:12;;;;;;;1.75;1.63;;;11.50;99.90;;;;;;5013615;28;20060;-83
2022/04/16 11:08:38;;;;;;;2.92;0.93;;;11.50;99.90;;;;;;5019421;28;20042;-82
2022/04/16 11:11:04;;;;;;;0.95;0.95;;;11.60;99.90;;;;;;5014811;28;20057;-83
2022/04/16 11:13:38;;;;;;;2.20;1.50;;;11.60;99.90;;;;;;5016037;28;20120;-83
2022/04/16 11:16:05;;;;;;;2.33;1.30;;;11.60;99.90;;;;;;5015120;28;20068;-84
2022/04/16 11:18:47;;;;;;;1.88;1.63;;;11.60;99.90;;;;;;5012021;28;20041;-88
2022/04/16 11:21:29;;;;;;;1.75;1.00;;;11.60;99.90;;;;;;5014137;28;20230;-94
2022/04/16 11:23:54;;;;;;;2.65;1.65;;;11.70;99.90;;;;;;5005702;28;20034;-96
2022/04/16 11:34:44;;;;;;;2.03;1.38;;;11.80;99.90;;;;;;4999331;28;20052;-81
2022/04/16 11:37:10;;;;;;;2.80;1.52;;;11.80;99.90;;;;;;5020198;28;20036;-82
2022/04/16 11:39:36;;;;;;;4.88;1.23;;;11.90;99.90;;;;;;5016415;28;20511;-81
2022/04/16 11:42:09;;;;;;;0.82;0.82;;;11.90;99.90;;;;;;5014323;28;20049;-82
2022/04/16 11:44:40;;;;;;;0.85;0.85;;;11.80;99.90;;;;;;5017935;28;20065;-82
2022/04/16 11:47:10;;;;;;;1.10;1.00;;;11.80;99.90;;;;;;5015987;28;20045;-83
2022/04/16 11:49:37;;;;;;;0.77;0.75;;;11.90;99.90;;;;;;5018457;28;20088;-87
2022/04/16 11:52:04;;;;;;;1.52;1.33;;;11.90;99.90;;;;;;5015810;28;20088;-83
2022/04/16 11:54:30;;;;;;;2.10;1.27;;;11.90;99.90;;;;;;5019917;28;20046;-79
2022/04/16 11:56:57;;;;;;;3.53;2.05;;;12.00;99.90;;;;;;5020451;28;20042;-80
2022/04/16 11:59:26;;;;;;;1.30;1.10;;;12.00;99.90;;;;;;5019831;28;20037;-79
2022/04/16 12:02:05;;;;;;;1.42;1.33;;;12.10;99.90;;;;;;5017782;28;20280;-79
2022/04/16 12:04:36;;;;;;;1.55;1.27;;;12.10;99.90;;;;;;4989488;28;1043118;-78
2022/04/16 12:07:02;;;;;;;1.08;0.75;;;12.10;99.90;;;;;;5042057;28;20512;-79
2022/04/16 12:09:32;;;;;;;1.67;1.02;;;12.10;99.90;;;;;;5044817;28;20033;-79
2022/04/16 12:12:01;;;;;;;0.85;0.80;;;12.20;99.90;;;;;;5025834;28;20124;-80
2022/04/16 12:14:26;;;;;;;1.20;1.10;;;12.20;99.90;;;;;;5043424;28;20045;-80
2022/04/16 12:16:59;;;;;;;0.85;0.82;;;12.30;99.90;;;;;;5044519;28;20025;-80
2022/04/16 12:19:35;;;;;;;1.50;1.38;;;12.30;99.90;;;;;;5025921;28;20045;-79
2022/04/16 12:22:01;;;;;;;2.00;1.17;;;12.30;99.90;;;;;;5037456;28;20033;-79
2022/04/16 12:24:28;;;;;;;1.35;0.88;;;12.30;99.90;;;;;;5014036;28;20523;-79
2022/04/16 12:26:57;;;;;;;1.80;1.17;;;12.20;99.90;;;;;;5029852;28;20120;-80
2022/04/16 12:29:28;;;;;;;0.93;0.93;;;12.20;99.90;;;;;;5024427;28;20042;-80
2022/04/16 12:31:58;;;;;;;1.33;1.15;;;12.30;99.90;;;;;;5013461;28;20041;-80
2022/04/16 12:34:27;;;;;;;1.75;0.93;;;12.30;99.90;;;;;;5044343;28;20411;-80
2022/04/16 12:36:53;;;;;;;0.40;0.40;;;12.30;99.90;;;;;;5040049;28;20048;-80
2022/04/16 12:39:19;;;;;;;1.10;0.65;;;12.30;99.90;;;;;;5043764;28;20049;-80
2022/04/16 12:41:45;;;;;;;1.02;0.93;;;12.40;99.90;;;;;;5036790;28;20052;-80
2022/04/16 12:44:10;;;;;;;2.38;1.85;;;12.40;99.90;;;;;;5023590;28;20095;-80
2022/04/16 12:46:36;;;;;;;1.20;1.10;;;12.40;99.90;;;;;;5031435;28;20480;-80
2022/04/16 12:49:01;;;;;;;0.63;0.63;;;12.50;99.90;;;;;;5023855;28;20763;-80
2022/04/16 12:51:27;;;;;;;0.60;0.57;;;12.40;99.90;;;;;;5040802;28;20037;-81
2022/04/16 12:53:53;;;;;;;1.67;1.13;;;12.40;99.90;;;;;;5031881;28;20048;-80
2022/04/16 12:56:19;;;;;;;0.98;0.80;;;12.40;99.90;;;;;;5043281;28;20076;-80
2022/04/16 12:58:44;;;;;;;0.43;0.43;;;12.40;99.90;;;;;;5038757;28;20081;-80
2022/04/16 13:01:10;;;;;;;0.50;0.50;;;12.50;99.90;;;;;;5025221;28;20403;-80
2022/04/16 13:03:35;;;;;;;0.60;0.60;;;12.50;99.90;;;;;;5041375;28;20041;-80
2022/04/16 13:06:02;;;;;;;0.77;0.77;;;12.50;99.90;;;;;;5042163;28;20060;-80
2022/04/16 13:08:30;;;;;;;2.10;0.70;;;12.50;99.90;;;;;;5042316;28;20059;-80
2022/04/16 13:10:56;;;;;;;2.05;1.05;;;12.50;99.90;;;;;;5059111;28;20045;-80
2022/04/16 13:13:23;;;;;;;0.80;0.75;;;12.50;99.90;;;;;;5038116;28;20042;-80